Time;durP1;ratioP1;P1;durP2;ratioP2;P2;SDS_P1;SDS_P2;PMS_P1;PMS_P2;Temp;Humidity;BMP_temperature;BMP_pressure;BME280_temperature;BME280_humidity;BME280_pressure;Samples;Min_cycle;Max_cycle;Signal;HPM_P1;HPM_P2
2023/12/09 00:00:50;;;;;;;33.33;6.50;;;;;;;7.67;63.96;94852.00;6254580;22;20014;-85
2023/12/09 00:03:16;;;;;;;8.52;5.07;;;;;;;8.00;62.46;94849.25;6212688;23;20020;-85
2023/12/09 00:05:41;;;;;;;12.20;5.97;;;;;;;7.21;65.17;94851.81;6218188;23;20008;-84
2023/12/09 00:08:07;;;;;;;8.10;5.00;;;;;;;7.19;65.42;94843.44;6217789;23;20003;-85
2023/12/09 00:10:32;;;;;;;7.57;4.95;;;;;;;7.44;64.39;94829.47;6192309;23;20095;-85
2023/12/09 00:12:58;;;;;;;6.25;4.13;;;;;;;7.56;64.07;94835.06;6217701;23;20081;-85
2023/12/09 00:15:23;;;;;;;12.40;5.57;;;;;;;7.80;63.19;94835.91;6218474;23;20014;-85
2023/12/09 00:17:49;;;;;;;12.27;6.55;;;;;;;7.43;64.60;94842.56;6218037;23;20091;-85
2023/12/09 00:20:14;;;;;;;7.78;5.82;;;;;;;7.41;64.35;94845.31;6218054;23;20004;-85
2023/12/09 00:22:41;;;;;;;14.88;9.27;;;;;;;7.60;63.87;94843.31;6192808;23;20023;-86
2023/12/09 00:27:45;;;;;;;12.60;7.03;;;;;;;7.64;64.05;94857.53;6258285;22;20023;-85
2023/12/09 00:30:11;;;;;;;10.43;7.63;;;;;;;7.67;63.70;94852.00;6223589;22;20004;-85
2023/12/09 00:32:36;;;;;;;10.75;6.80;;;;;;;7.67;63.84;94848.59;6247897;22;20006;-85
2023/12/09 00:35:02;;;;;;;9.38;6.18;;;;;;;7.43;64.75;94853.72;6223475;22;20208;-86
2023/12/09 00:37:27;;;;;;;11.75;6.63;;;;;;;7.56;64.15;94847.22;6212504;22;20008;-86
2023/12/09 00:45:08;;;;;;;10.40;7.25;;;;;;;7.49;63.75;94847.06;6284757;22;20023;-85
2023/12/09 00:47:34;;;;;;;9.60;7.15;;;;;;;7.53;64.00;94837.19;6253488;22;20003;-85
2023/12/09 00:50:00;;;;;;;12.20;7.45;;;;;;;7.51;63.81;94841.72;6253478;22;20007;-85
2023/12/09 01:00:04;;;;;;;13.88;8.50;;;;;;;7.58;63.77;94847.84;6274349;22;20027;-85
2023/12/09 01:02:31;;;;;;;14.13;8.88;;;;;;;7.60;64.03;94854.47;6273815;22;20010;-85
2023/12/09 01:04:59;;;;;;;15.65;8.27;;;;;;;7.60;63.77;94851.06;6279026;22;20007;-85
2023/12/09 01:07:24;;;;;;;27.58;12.65;;;;;;;7.52;64.34;94856.25;6278793;22;20086;-85
2023/12/09 01:14:50;;;;;;;10.98;7.82;;;;;;;7.41;64.80;94858.25;6273804;22;20023;-85
2023/12/09 01:17:19;;;;;;;9.40;6.20;;;;;;;7.38;64.86;94860.34;6197226;22;20061;-85
2023/12/09 01:19:47;;;;;;;5.65;3.85;;;;;;;7.47;64.33;94858.56;6222532;22;20094;-85
2023/12/09 01:22:13;;;;;;;6.18;3.50;;;;;;;7.18;65.41;94860.75;6223206;22;20003;-85
2023/12/09 01:27:04;;;;;;;8.27;5.43;;;;;;;7.40;64.68;94851.44;6266815;22;20023;-85
2023/12/09 01:29:33;;;;;;;6.80;4.72;;;;;;;7.47;64.50;94851.59;6247922;22;20020;-86
2023/12/09 01:32:01;;;;;;;8.68;4.75;;;;;;;7.55;64.79;94853.34;6222067;22;20069;-85
2023/12/09 01:34:26;;;;;;;8.13;5.28;;;;;;;7.40;64.67;94848.84;6247387;22;20039;-85
2023/12/09 01:41:53;;;;;;;8.23;5.45;;;;;;;7.48;64.46;94863.53;6273242;22;20061;-85
2023/12/09 01:44:18;;;;;;;10.18;6.38;;;;;;;7.66;64.06;94859.94;6246922;22;20011;-85
2023/12/09 01:46:44;;;;;;;10.63;6.22;;;;;;;7.67;64.26;94883.06;6196828;22;20016;-85
2023/12/09 01:49:10;;;;;;;9.80;6.30;;;;;;;7.57;64.63;94888.44;6247699;22;20004;-85
2023/12/09 01:51:38;;;;;;;9.05;5.85;;;;;;;7.66;64.13;94891.81;6221869;22;20012;-85
2023/12/09 01:54:04;;;;;;;7.93;5.40;;;;;;;7.79;63.69;94892.09;6222583;22;20007;-85
2023/12/09 01:56:30;;;;;;;7.40;4.75;;;;;;;7.72;63.87;94896.31;6222291;22;20081;-85
2023/12/09 01:58:55;;;;;;;7.10;4.45;;;;;;;7.66;64.00;94891.81;6197376;22;20070;-85
2023/12/09 02:03:56;;;;;;;5.72;3.35;;;;;;;7.52;64.33;94914.03;6269060;22;20016;-85
2023/12/09 02:06:22;;;;;;;5.93;3.40;;;;;;;7.73;63.73;94908.28;6247886;22;20012;-85
2023/12/09 02:08:48;;;;;;;5.55;3.38;;;;;;;7.46;64.39;94911.28;6247595;22;20014;-85
2023/12/09 02:12:02;;;;;;;4.28;3.13;;;;;;;7.37;64.72;94918.25;6247288;22;20004;-85
2023/12/09 02:14:45;;;;;;;4.75;2.78;;;;;;;7.79;62.86;94901.63;6156368;22;20011;-85
2023/12/09 02:24:56;;;;;;;5.10;3.40;;;;;;;7.49;64.37;94887.66;6242768;22;20035;-85
2023/12/09 02:27:27;;;;;;;4.57;2.80;;;;;;;7.64;63.86;94879.03;6216861;22;20012;-86
2023/12/09 02:30:19;;;;;;;4.53;3.10;;;;;;;7.86;63.37;94899.16;6217007;23;20197;-85
2023/12/09 02:32:46;;;;;;;3.78;2.80;;;;;;;7.80;63.23;94905.81;6268607;22;20020;-85
2023/12/09 02:35:14;;;;;;;4.60;3.08;;;;;;;7.77;63.49;94906.19;6220840;22;20011;-85
2023/12/09 02:40:17;;;;;;;3.83;2.75;;;;;;;7.74;63.45;94885.78;6270873;22;20048;-85
2023/12/09 02:42:43;;;;;;;3.72;2.53;;;;;;;7.87;63.17;94898.22;6252147;22;20034;-85
2023/12/09 02:45:11;;;;;;;3.63;2.47;;;;;;;8.02;62.51;94896.53;6251960;22;20015;-85
2023/12/09 02:47:36;;;;;;;2.92;2.55;;;;;;;8.07;62.39;94898.59;6252345;22;20022;-85
2023/12/09 02:50:03;;;;;;;4.80;3.00;;;;;;;7.90;62.75;94900.44;6251615;22;20015;-85
2023/12/09 02:54:54;;;;;;;4.00;2.67;;;;;;;8.06;62.73;94895.19;6273033;22;20119;-85
2023/12/09 02:57:19;;;;;;;4.35;2.65;;;;;;;7.90;63.05;94877.97;6221594;22;20015;-85
2023/12/09 02:59:47;;;;;;;4.18;2.70;;;;;;;7.85;63.20;94862.13;6221403;22;20014;-85
2023/12/09 03:02:13;;;;;;;4.78;3.00;;;;;;;8.01;62.87;94875.00;6246376;22;20069;-85
2023/12/09 03:12:14;;;;;;;2.95;1.52;;;;;;;7.60;63.62;94841.53;6303474;22;20023;-85
2023/12/09 03:14:39;;;;;;;3.58;1.83;;;;;;;7.46;64.01;94838.81;6251265;22;20033;-85
2023/12/09 03:17:06;;;;;;;2.63;1.80;;;;;;;7.73;63.26;94819.44;6226419;22;20068;-85
2023/12/09 03:19:32;;;;;;;1.65;1.33;;;;;;;7.22;64.80;94793.97;6251517;22;20007;-85
2023/12/09 03:21:58;;;;;;;2.45;1.40;;;;;;;7.41;64.04;94772.88;6277534;22;20002;-86
2023/12/09 03:24:25;;;;;;;1.60;1.50;;;;;;;7.32;64.21;94768.69;6276308;22;20003;-86
2023/12/09 03:26:51;;;;;;;2.67;1.40;;;;;;;7.40;64.18;94791.13;6276880;22;20011;-86
2023/12/09 03:29:17;;;;;;;2.00;1.35;;;;;;;7.45;63.55;94791.44;6277143;22;20007;-85
2023/12/09 03:36:43;;;;;;;2.35;1.10;;;;;;;7.75;61.42;94791.59;6303677;22;20268;-85
2023/12/09 03:39:11;;;;;;;2.28;0.85;;;;;;;7.77;61.24;94792.28;6277079;22;20018;-86
2023/12/09 03:41:39;;;;;;;1.13;0.80;;;;;;;7.42;62.09;94766.72;6277076;22;19992;-85
2023/12/09 03:44:04;;;;;;;1.92;0.90;;;;;;;7.57;61.58;94766.78;6251575;22;20003;-85
2023/12/09 03:46:30;;;;;;;0.98;0.73;;;;;;;7.68;60.99;94770.00;6252116;22;20042;-86
2023/12/09 03:53:55;;;;;;;1.95;0.90;;;;;;;6.97;62.90;94768.19;6303583;22;20268;-86
2023/12/09 03:56:21;;;;;;;2.35;0.90;;;;;;;7.24;62.22;94760.97;6251845;22;20072;-85
2023/12/09 03:58:47;;;;;;;1.67;1.02;;;;;;;7.30;62.10;94768.06;6251205;22;20015;-85
2023/12/09 04:01:13;;;;;;;3.42;1.00;;;;;;;7.41;61.81;94765.09;6277346;22;20015;-86
2023/12/09 04:03:39;;;;;;;1.05;0.75;;;;;;;7.19;62.19;94761.47;6276609;22;20053;-86
2023/12/09 04:06:05;;;;;;;1.42;0.80;;;;;;;7.47;61.49;94752.47;6251302;22;20015;-86
2023/12/09 04:08:31;;;;;;;1.42;0.80;;;;;;;7.41;61.68;94744.41;6277029;22;20013;-85
2023/12/09 04:10:56;;;;;;;1.20;0.90;;;;;;;7.32;61.57;94729.09;6276905;22;20007;-86
2023/12/09 04:13:22;;;;;;;1.05;0.85;;;;;;;7.36;61.90;94744.09;6276606;22;20010;-86
2023/12/09 04:18:12;;;;;;;1.97;1.20;;;;;;;7.16;62.16;94748.06;6271849;22;20060;-86
2023/12/09 04:20:38;;;;;;;2.05;1.10;;;;;;;7.12;62.11;94741.59;6222619;22;20233;-85
2023/12/09 04:23:04;;;;;;;1.73;1.30;;;;;;;7.12;61.75;94759.72;6222673;22;20003;-85
2023/12/09 04:25:30;;;;;;;2.50;1.13;;;;;;;7.00;62.25;94772.19;6223113;22;20007;-85
2023/12/09 04:27:59;;;;;;;1.90;1.10;;;;;;;6.97;62.09;94775.94;6223044;22;20003;-85
2023/12/09 04:30:25;;;;;;;2.08;1.30;;;;;;;6.91;62.11;94791.28;6248316;22;20058;-85
2023/12/09 04:32:50;;;;;;;1.08;0.90;;;;;;;6.97;61.93;94778.53;6222858;22;20016;-85
2023/12/09 04:35:16;;;;;;;3.28;1.17;;;;;;;6.85;62.10;94796.16;6246576;22;20007;-85
2023/12/09 04:37:41;;;;;;;2.53;1.30;;;;;;;6.83;61.87;94798.13;6222911;22;20099;-85
2023/12/09 04:40:11;;;;;;;2.08;1.20;;;;;;;6.99;61.78;94811.97;6222169;22;20094;-86
2023/12/09 04:42:40;;;;;;;3.22;1.10;;;;;;;6.92;62.24;94822.16;6247177;22;19999;-85
2023/12/09 04:45:07;;;;;;;1.45;1.00;;;;;;;6.83;62.35;94821.38;6247658;22;20007;-85
2023/12/09 04:50:10;;;;;;;1.85;1.42;;;;;;;6.98;61.70;94826.66;6267710;22;20024;-85
2023/12/09 04:52:36;;;;;;;2.75;1.30;;;;;;;6.88;62.21;94840.75;6247436;22;20039;-85
2023/12/09 04:55:03;;;;;;;7.47;2.10;;;;;;;6.92;62.27;94842.84;6247808;22;20009;-85
2023/12/09 04:57:31;;;;;;;3.17;1.70;;;;;;;6.84;62.61;94835.91;6222927;22;20008;-84
2023/12/09 04:59:56;;;;;;;4.85;2.78;;;;;;;6.89;62.88;94843.16;6222475;22;20063;-85
2023/12/09 05:02:22;;;;;;;5.07;2.40;;;;;;;6.73;62.71;94831.06;6222637;22;20031;-85
2023/12/09 05:04:50;;;;;;;17.67;6.28;;;;;;;6.52;64.73;94830.75;6222720;22;20008;-85
2023/12/09 05:07:17;;;;;;;22.00;8.88;;;;;;;6.59;64.74;94837.69;6222066;22;20025;-85
2023/12/09 05:12:07;;;;;;;33.28;10.88;;;;;;;6.46;65.97;94845.13;6262386;22;20011;-85
2023/12/09 05:14:37;;;;;;;21.55;8.40;;;;;;;6.23;66.68;94842.38;6196792;22;20012;-85
2023/12/09 05:17:02;;;;;;;41.90;12.85;;;;;;;6.30;67.27;94856.25;6247007;22;20007;-84
2023/12/09 05:22:03;;;;;;;40.10;12.93;;;;;;;6.09;68.10;94851.53;6273398;22;20050;-85
2023/12/09 05:24:29;;;;;;;25.48;10.70;;;;;;;6.21;67.74;94844.31;6196925;22;20011;-84
2023/12/09 05:26:55;;;;;;;20.42;9.93;;;;;;;6.42;66.90;94854.19;6222024;22;20016;-84
2023/12/09 05:29:24;;;;;;;20.77;9.63;;;;;;;6.55;66.21;94851.91;6222560;22;20092;-85
2023/12/09 05:31:50;;;;;;;33.42;11.35;;;;;;;6.74;65.27;94840.44;6222258;22;20004;-85
2023/12/09 05:34:17;;;;;;;29.48;10.90;;;;;;;6.78;65.08;94848.69;6222223;22;20014;-84
2023/12/09 05:36:42;;;;;;;19.15;9.25;;;;;;;6.72;65.00;94844.97;6197060;22;20014;-84
2023/12/09 05:39:10;;;;;;;30.27;11.45;;;;;;;6.73;64.78;94825.91;6247105;22;20000;-85
2023/12/09 05:41:36;;;;;;;31.77;11.57;;;;;;;6.75;65.10;94838.66;6222585;22;20004;-85
2023/12/09 05:44:01;;;;;;;54.72;12.32;;;;;;;6.92;64.01;94853.19;6262937;22;20019;-85
2023/12/09 05:46:29;;;;;;;135.52;15.07;;;;;;;6.40;65.64;94828.50;6252022;22;20015;-85
2023/12/09 05:48:55;;;;;;;18.42;8.80;;;;;;;6.75;64.84;94849.81;6252492;22;20011;-85
2023/12/09 05:51:24;;;;;;;15.02;7.22;;;;;;;6.70;64.63;94835.75;6252987;22;20011;-85
2023/12/09 05:53:49;;;;;;;11.52;5.47;;;;;;;6.76;64.58;94838.50;6253474;22;20069;-86
2023/12/09 05:56:15;;;;;;;6.22;4.15;;;;;;;6.97;63.58;94834.59;6227661;22;20011;-85
2023/12/09 06:03:41;;;;;;;9.52;5.68;;;;;;;6.84;64.25;94842.84;6270845;22;20012;-86
2023/12/09 06:06:07;;;;;;;8.85;4.60;;;;;;;6.87;63.66;94832.16;6216814;23;20024;-85
2023/12/09 06:08:34;;;;;;;14.32;6.28;;;;;;;6.89;63.57;94834.59;6217040;23;20012;-86
2023/12/09 06:13:25;;;;;;;10.50;5.90;;;;;;;6.67;64.36;94818.00;6228548;22;20031;-85
2023/12/09 06:15:53;;;;;;;12.80;6.57;;;;;;;6.73;63.84;94818.13;6247411;22;20079;-85
2023/12/09 06:18:19;;;;;;;13.90;6.50;;;;;;;6.56;64.61;94816.53;6196708;22;20022;-85
2023/12/09 06:20:44;;;;;;;10.77;5.57;;;;;;;6.74;63.76;94816.34;6196601;22;20012;-85
2023/12/09 06:23:10;;;;;;;15.88;6.28;;;;;;;6.87;63.72;94824.41;6221835;22;20004;-85
2023/12/09 06:25:36;;;;;;;48.28;9.00;;;;;;;6.72;64.03;94824.28;6221869;22;20027;-86
2023/12/09 06:28:03;;;;;;;76.97;9.35;;;;;;;6.74;63.87;94816.34;6247058;22;20012;-86
2023/12/09 06:30:29;;;;;;;291.30;16.35;;;;;;;6.71;64.26;94819.28;6221979;22;20007;-86
2023/12/09 06:32:54;;;;;;;23.05;9.45;;;;;;;6.73;63.89;94807.00;6221334;22;20003;-85
2023/12/09 06:37:45;;;;;;;377.00;17.35;;;;;;;6.82;63.81;94795.69;6283571;22;20114;-86
2023/12/09 06:40:11;;;;;;;157.70;10.25;;;;;;;6.79;64.11;94801.16;6251568;22;20029;-85
2023/12/09 06:42:38;;;;;;;186.48;13.30;;;;;;;6.63;64.13;94802.81;6251967;22;20038;-85
2023/12/09 06:45:07;;;;;;;160.75;13.07;;;;;;;6.71;64.17;94809.75;6252362;22;19999;-85
2023/12/09 06:47:33;;;;;;;23.23;7.90;;;;;;;6.72;64.18;94800.22;6227533;22;20015;-85
2023/12/09 06:50:00;;;;;;;39.97;8.70;;;;;;;6.65;64.15;94811.22;6189856;23;20035;-85
2023/12/09 06:57:26;;;;;;;90.88;10.00;;;;;;;6.46;64.83;94798.63;6248551;22;20031;-85
2023/12/09 06:59:52;;;;;;;265.00;15.88;;;;;;;6.52;64.75;94792.00;6246993;22;20064;-85
2023/12/09 07:02:17;;;;;;;498.27;22.83;;;;;;;6.27;66.10;94792.00;6246288;22;20038;-85
2023/12/09 07:04:45;;;;;;;342.30;15.90;;;;;;;6.48;65.37;94798.47;6245995;22;20011;-85
2023/12/09 07:07:11;;;;;;;472.90;22.90;;;;;;;6.28;65.92;94778.13;6246353;22;20004;-85
2023/12/09 07:09:36;;;;;;;264.60;15.32;;;;;;;6.37;65.51;94791.84;6218254;22;20035;-85
2023/12/09 07:12:03;;;;;;;296.55;16.20;;;;;;;6.66;64.84;94786.16;6246567;22;20051;-85
2023/12/09 07:14:28;;;;;;;356.17;18.40;;;;;;;6.69;64.95;94796.19;6246850;22;20047;-85
2023/12/09 07:16:56;;;;;;;370.63;18.05;;;;;;;6.63;65.33;94784.72;6246610;22;20000;-85
2023/12/09 07:19:21;;;;;;;515.88;23.70;;;;;;;6.67;65.03;94767.13;6196875;22;20016;-85
2023/12/09 07:21:47;;;;;;;321.60;17.63;;;;;;;6.56;65.36;94776.00;6246185;22;20092;-85
2023/12/09 07:24:12;;;;;;;209.43;15.82;;;;;;;6.70;65.33;94789.22;6221635;22;20026;-85
2023/12/09 07:26:38;;;;;;;539.60;24.40;;;;;;;6.84;64.76;94784.19;6221110;22;20007;-85
2023/12/09 07:29:05;;;;;;;473.83;24.48;;;;;;;6.64;65.32;94788.94;6196614;22;20007;-85
2023/12/09 07:31:34;;;;;;;433.23;21.80;;;;;;;6.55;65.91;94789.06;6246531;22;20000;-85
2023/12/09 07:33:59;;;;;;;333.10;17.75;;;;;;;6.47;66.01;94782.16;6246305;22;20011;-85
2023/12/09 07:36:24;;;;;;;258.67;15.30;;;;;;;6.60;65.46;94792.00;6220871;22;20011;-85
2023/12/09 07:38:50;;;;;;;226.82;13.05;;;;;;;6.55;65.55;94779.56;6246571;22;20135;-85
2023/12/09 07:46:26;;;;;;;222.15;14.90;;;;;;;6.58;65.56;94757.75;6267713;22;20019;-85
2023/12/09 07:48:54;;;;;;;176.88;14.25;;;;;;;6.70;64.90;94765.97;6191431;22;20016;-85
2023/12/09 07:51:20;;;;;;;150.38;13.10;;;;;;;6.45;65.86;94781.50;6192167;22;20004;-85
2023/12/09 07:53:46;;;;;;;52.15;9.38;;;;;;;6.59;65.06;94778.28;6193042;23;20027;-85
2023/12/09 07:56:14;;;;;;;101.57;10.15;;;;;;;6.71;64.58;94785.69;6193216;22;20004;-85
2023/12/09 07:58:43;;;;;;;159.50;13.25;;;;;;;6.65;64.64;94787.94;6217858;22;20008;-85
2023/12/09 08:01:09;;;;;;;133.82;10.52;;;;;;;6.79;64.22;94768.38;6193637;23;20012;-85
2023/12/09 08:06:02;;;;;;;81.93;10.55;;;;;;;6.76;64.11;94762.72;6237291;22;20075;-85
2023/12/09 08:08:27;;;;;;;137.02;10.48;;;;;;;6.79;64.04;94758.03;6248354;22;20007;-84
2023/12/09 08:10:53;;;;;;;81.03;7.82;;;;;;;6.86;64.73;94750.44;6199290;22;20034;-86
2023/12/09 08:13:22;;;;;;;25.17;5.40;;;;;;;7.09;64.40;94726.44;6247818;22;20093;-85
2023/12/09 08:15:48;;;;;;;19.00;4.80;;;;;;;7.91;62.23;94729.38;6198558;22;20019;-85
2023/12/09 08:18:13;;;;;;;6.35;3.63;;;;;;;8.65;60.32;94721.00;6207248;22;20008;-85
2023/12/09 08:20:41;;;;;;;7.68;4.00;;;;;;;9.08;58.61;94735.94;6186813;23;20044;-85
2023/12/09 08:23:07;;;;;;;45.30;4.93;;;;;;;8.92;58.83;94739.53;6139056;23;20019;-85
2023/12/09 08:25:32;;;;;;;78.88;5.93;;;;;;;8.90;58.09;94728.53;6186247;23;20004;-85
2023/12/09 08:27:58;;;;;;;27.55;4.70;;;;;;;8.91;59.58;94736.13;6186250;23;20004;-85
2023/12/09 08:30:23;;;;;;;5.30;3.55;;;;;;;9.35;57.89;94750.88;6162433;23;20119;-85
2023/12/09 08:32:49;;;;;;;4.38;2.90;;;;;;;9.98;57.05;94748.56;6161195;23;20017;-84
2023/12/09 08:35:14;;;;;;;3.78;3.03;;;;;;;10.26;55.75;94750.41;6137080;23;20016;-85
2023/12/09 08:37:40;;;;;;;3.90;3.00;;;;;;;11.26;54.55;94758.13;6165129;22;20019;-85
2023/12/09 08:40:11;;;;;;;3.80;2.65;;;;;;;12.80;48.53;94736.56;6277596;22;20007;-85
2023/12/09 08:42:42;;;;;;;4.50;2.60;;;;;;;13.22;47.11;94739.69;6277387;22;20007;-85
2023/12/09 08:45:10;;;;;;;3.30;2.70;;;;;;;12.37;49.74;94720.53;6277274;22;20022;-85
2023/12/09 08:47:36;;;;;;;4.20;2.92;;;;;;;13.17;48.98;94739.50;6277565;22;20011;-84
2023/12/09 08:50:04;;;;;;;3.67;2.80;;;;;;;13.93;47.21;94732.00;6277642;22;20023;-84
2023/12/09 08:52:33;;;;;;;4.38;3.47;;;;;;;14.42;46.31;94731.25;6252190;22;20045;-84
2023/12/09 08:54:59;;;;;;;4.25;3.60;;;;;;;14.17;46.52;94722.59;6252640;22;20003;-84
2023/12/09 08:57:28;;;;;;;3.55;3.10;;;;;;;14.01;46.11;94722.09;6278367;22;19999;-84
2023/12/09 08:59:54;;;;;;;3.22;2.92;;;;;;;15.12;44.50;94721.63;6227551;22;20093;-85
2023/12/09 09:02:21;;;;;;;3.50;2.80;;;;;;;16.08;42.06;94708.75;6268442;22;20050;-84
2023/12/09 09:04:46;;;;;;;3.17;2.88;;;;;;;16.44;42.20;94710.41;6222186;22;20019;-84
2023/12/09 09:07:15;;;;;;;4.43;3.75;;;;;;;16.30;41.37;94696.72;6246476;22;20015;-85
2023/12/09 09:09:41;;;;;;;6.15;3.55;;;;;;;16.21;41.80;94695.44;6222103;22;20004;-85
2023/12/09 09:12:09;;;;;;;8.40;3.78;;;;;;;15.90;42.46;94709.63;6221804;22;20038;-85
2023/12/09 09:17:00;;;;;;;5.93;4.05;;;;;;;15.85;41.71;94699.00;6258882;22;20036;-84
2023/12/09 09:19:25;;;;;;;5.82;4.90;;;;;;;15.17;43.31;94726.97;6221625;22;20024;-85
2023/12/09 09:21:52;;;;;;;6.97;4.93;;;;;;;13.03;48.27;94706.63;6222024;22;20003;-85
2023/12/09 09:24:18;;;;;;;22.77;6.72;;;;;;;12.12;50.55;94713.31;6247152;22;20011;-85
2023/12/09 09:26:43;;;;;;;13.80;6.22;;;;;;;12.37;50.33;94705.69;6221826;22;20038;-85
2023/12/09 09:29:13;;;;;;;16.00;5.78;;;;;;;12.10;50.02;94697.06;6246863;22;20000;-85
2023/12/09 09:31:38;;;;;;;29.67;6.43;;;;;;;11.40;51.66;94696.47;6222084;22;20004;-86
2023/12/09 09:34:03;;;;;;;8.40;6.65;;;;;;;10.65;53.50;94701.53;6247382;22;20004;-85
2023/12/09 09:36:30;;;;;;;7.03;5.60;;;;;;;10.41;55.32;94693.16;6221206;22;20003;-85
2023/12/09 09:38:56;;;;;;;7.35;5.50;;;;;;;10.52;54.26;94705.63;6221862;22;20030;-85
2023/12/09 09:41:30;;;;;;;8.30;6.05;;;;;;;10.10;55.20;94709.88;6222472;22;20015;-85
2023/12/09 09:44:02;;;;;;;9.55;6.18;;;;;;;10.01;56.15;94721.38;6247373;22;20011;-85
2023/12/09 09:46:28;;;;;;;8.10;5.93;;;;;;;10.01;55.52;94718.78;6247363;22;20007;-85
2023/12/09 09:48:55;;;;;;;8.95;6.25;;;;;;;10.08;55.49;94724.06;6221484;22;20045;-84
2023/12/09 09:51:28;;;;;;;7.78;5.90;;;;;;;10.01;55.28;94718.78;6244985;22;20004;-85
2023/12/09 09:54:06;;;;;;;8.77;6.30;;;;;;;9.70;56.99;94713.91;6223012;22;20007;-85
2023/12/09 09:56:34;;;;;;;8.10;5.88;;;;;;;9.74;56.91;94715.94;6245914;22;20003;-85
2023/12/09 09:58:59;;;;;;;7.57;5.70;;;;;;;9.92;56.77;94712.13;6245417;22;20030;-85
2023/12/09 10:01:26;;;;;;;6.50;4.90;;;;;;;9.58;57.55;94695.41;6221190;22;20003;-85
2023/12/09 10:03:51;;;;;;;6.47;4.60;;;;;;;9.54;57.84;94683.78;6246238;22;20012;-85
2023/12/09 10:06:18;;;;;;;8.32;4.80;;;;;;;9.84;56.96;94684.47;6221070;22;20015;-85
2023/12/09 10:08:44;;;;;;;6.68;4.93;;;;;;;9.85;56.73;94686.09;6246540;22;20019;-85
2023/12/09 10:11:10;;;;;;;8.38;5.30;;;;;;;9.71;57.50;94682.56;6221121;22;20018;-84
2023/12/09 10:13:38;;;;;;;8.07;5.45;;;;;;;9.82;57.39;94670.06;6246666;22;20008;-85
2023/12/09 10:16:04;;;;;;;7.15;5.35;;;;;;;9.91;56.75;94677.53;6227107;22;20047;-85
2023/12/09 10:21:11;;;;;;;7.10;5.35;;;;;;;9.90;56.91;94675.13;6303450;22;20015;-85
2023/12/09 10:23:36;;;;;;;8.40;5.03;;;;;;;9.77;56.75;94652.44;6276771;22;20010;-85
2023/12/09 10:28:27;;;;;;;9.45;6.68;;;;;;;9.49;57.92;94654.97;6301459;22;20335;-85
2023/12/09 10:30:52;;;;;;;8.43;6.05;;;;;;;9.36;57.98;94633.06;6250541;22;20011;-85
2023/12/09 10:33:18;;;;;;;8.07;5.65;;;;;;;9.06;59.02;94639.34;6225041;22;20003;-85
2023/12/09 10:38:19;;;;;;;8.82;6.30;;;;;;;9.06;58.63;94634.13;6301827;22;20026;-85
2023/12/09 10:40:46;;;;;;;8.75;6.20;;;;;;;8.53;60.26;94623.91;6249880;22;20015;-85
2023/12/09 10:45:38;;;;;;;9.07;6.15;;;;;;;8.62;60.01;94607.28;6258149;22;20037;-85
2023/12/09 10:48:03;;;;;;;10.75;7.18;;;;;;;8.69;59.64;94608.19;6224617;22;20011;-85
2023/12/09 10:50:30;;;;;;;11.50;7.85;;;;;;;8.53;59.93;94598.81;6250205;22;20007;-85
2023/12/09 10:52:59;;;;;;;9.93;6.57;;;;;;;8.88;59.40;94590.47;6275841;22;20003;-85
2023/12/09 10:55:25;;;;;;;7.72;5.47;;;;;;;8.80;59.40;94589.56;6277091;22;20007;-86
2023/12/09 10:57:53;;;;;;;8.88;5.68;;;;;;;8.53;60.15;94598.00;6251487;22;20015;-85
2023/12/09 11:00:19;;;;;;;8.65;6.00;;;;;;;8.34;60.96;94591.53;6276472;22;20011;-85
2023/12/09 11:02:46;;;;;;;9.30;6.47;;;;;;;8.37;60.64;94581.63;6276668;22;20164;-85
2023/12/09 11:05:21;;;;;;;;;;;;;;;;;;;;;
2023/12/09 11:07:48;;;;;;;8.15;5.97;;;;;;;8.29;60.93;94565.38;6272398;22;20019;-85
2023/12/09 11:10:13;;;;;;;8.75;6.22;;;;;;;8.40;60.67;94576.09;6250664;22;20011;-85
2023/12/09 11:12:41;;;;;;;9.65;6.43;;;;;;;8.41;61.38;94569.13;6276372;22;20090;-85
2023/12/09 11:15:13;;;;;;;10.00;6.55;;;;;;;8.69;59.71;94561.50;6276023;22;20011;-85
2023/12/09 11:17:44;;;;;;;11.75;6.65;;;;;;;8.46;60.41;94559.06;6276126;22;19999;-85
2023/12/09 11:20:13;;;;;;;9.20;6.45;;;;;;;8.47;60.23;94558.06;6276163;22;20003;-85
2023/12/09 11:22:43;;;;;;;11.38;7.43;;;;;;;8.69;60.20;94560.72;6251186;22;20007;-84
2023/12/09 11:25:21;;;;;;;11.63;7.00;;;;;;;8.43;60.74;94566.38;6275847;22;20035;-84
2023/12/09 11:27:51;;;;;;;8.52;6.35;;;;;;;8.48;60.63;94569.25;6276472;22;20003;-85
2023/12/09 11:30:40;;;;;;;9.82;6.63;;;;;;;8.22;60.87;94557.50;6276296;22;20099;-85
2023/12/09 11:33:06;;;;;;;8.77;5.90;;;;;;;7.52;63.21;94537.97;6275430;22;20090;-84
2023/12/09 11:35:37;;;;;;;7.82;5.47;;;;;;;8.10;61.12;94526.06;6251163;22;20059;-85
2023/12/09 11:38:09;;;;;;;12.20;7.40;;;;;;;7.95;61.82;94518.28;6275795;22;20011;-86
2023/12/09 11:40:36;;;;;;;11.10;7.07;;;;;;;7.93;61.60;94514.28;6276042;22;20017;-85
2023/12/09 11:50:39;;;;;;;10.25;7.15;;;;;;;7.82;62.12;94455.97;6303407;22;20019;-85
2023/12/09 11:53:04;;;;;;;10.57;6.18;;;;;;;7.67;62.49;94417.16;6277238;22;20015;-85
2023/12/09 11:55:30;;;;;;;6.97;4.75;;;;;;;7.98;62.04;94423.94;6251555;22;20082;-85
2023/12/09 11:57:58;;;;;;;6.57;4.07;;;;;;;8.15;61.06;94430.50;6276159;22;20007;-85
2023/12/09 12:02:48;;;;;;;4.97;3.63;;;;;;;8.61;60.42;94434.63;6270396;22;20016;-84
2023/12/09 12:05:14;;;;;;;8.13;5.22;;;;;;;8.59;60.69;94400.31;6220697;22;20014;-84
2023/12/09 12:07:39;;;;;;;7.72;5.70;;;;;;;8.98;60.55;94412.78;6271083;22;20023;-85
2023/12/09 12:10:06;;;;;;;7.40;5.30;;;;;;;9.27;60.90;94413.63;6250330;22;20066;-85
2023/12/09 12:12:36;;;;;;;8.93;6.38;;;;;;;9.57;60.73;94408.22;6251263;22;20042;-84
2023/12/09 12:15:04;;;;;;;9.23;5.95;;;;;;;9.69;60.04;94385.09;6276978;22;20022;-84
2023/12/09 12:17:38;;;;;;;7.43;5.10;;;;;;;9.91;58.65;94384.00;6276986;22;20013;-85
2023/12/09 12:20:06;;;;;;;5.22;4.18;;;;;;;10.28;57.39;94371.56;6277034;22;20003;-86
2023/12/09 12:22:31;;;;;;;4.57;3.30;;;;;;;10.45;55.92;94343.44;6225999;22;20140;-85
2023/12/09 12:25:00;;;;;;;4.50;3.13;;;;;;;10.25;55.43;94347.75;6226130;22;20046;-85
2023/12/09 12:27:27;;;;;;;3.58;2.85;;;;;;;9.87;56.86;94346.44;6226086;22;20015;-85
2023/12/09 12:29:54;;;;;;;3.65;3.20;;;;;;;9.85;56.08;94324.25;6251365;22;20015;-86
2023/12/09 13:32:15;;;;;;;2.97;2.13;;;;;;;9.95;54.84;94200.00;6272463;22;20016;-86
2023/12/09 13:34:41;;;;;;;4.13;2.33;;;;;;;9.81;55.65;94196.59;6248220;22;20024;-86
2023/12/09 13:37:07;;;;;;;3.20;2.30;;;;;;;9.72;55.34;94192.56;6248256;22;20073;-87
2023/12/09 13:39:33;;;;;;;3.20;2.03;;;;;;;9.79;54.29;94189.00;6247589;22;20011;-86
2023/12/09 13:41:58;;;;;;;3.75;2.03;;;;;;;9.70;55.68;94195.38;6222621;22;20008;-87
2023/12/09 14:29:22;;;;;;;4.90;3.05;;;;;;;8.31;60.06;94160.03;6272908;22;20028;-86
2023/12/09 14:31:48;;;;;;;6.13;4.40;;;;;;;8.86;58.45;94177.53;6222105;22;20019;-86
2023/12/09 14:41:59;;;;;;;5.53;3.55;;;;;;;8.98;59.36;94158.63;6263769;22;20022;-86
2023/12/09 14:44:24;;;;;;;5.10;3.78;;;;;;;9.04;59.87;94157.03;6221415;22;20020;-85
2023/12/09 14:57:03;;;;;;;9.48;6.78;;;;;;;8.45;61.09;94131.66;6271886;22;20020;-86
2023/12/09 15:07:22;;;;;;;7.07;4.57;;;;;;;8.77;58.89;94099.09;6270334;22;20027;-86
2023/12/09 15:09:48;;;;;;;5.85;3.33;;;;;;;9.03;57.70;94095.81;6277575;22;20027;-86
2023/12/09 15:35:20;;;;;;;3.13;2.55;;;;;;;8.31;59.42;94004.59;6304334;22;20023;-86
2023/12/09 15:37:46;;;;;;;5.00;2.88;;;;;;;8.60;58.67;94007.91;6252009;22;20021;-86
2023/12/09 15:40:14;;;;;;;7.03;4.65;;;;;;;8.44;58.78;93998.69;6252105;22;20080;-86
2023/12/09 15:58:01;;;;;;;6.68;3.53;;;;;;;8.44;59.69;93936.50;6289866;22;20020;-86
2023/12/09 16:13:25;;;;;;;2.25;1.60;;;;;;;8.43;60.01;93877.13;6271787;22;20019;-86
2023/12/09 16:20:52;;;;;;;5.43;3.83;;;;;;;8.39;60.49;93861.13;6305713;22;20031;-86
2023/12/09 16:23:20;;;;;;;6.47;4.07;;;;;;;8.56;60.48;93866.75;6279429;22;20034;-87
2023/12/09 16:30:46;;;;;;;3.22;2.20;;;;;;;8.52;60.91;93871.53;6272860;22;20012;-86
2023/12/09 16:41:01;;;;;;;3.33;2.25;;;;;;;8.43;60.75;93852.00;6274371;22;20024;-86
2023/12/09 16:43:27;;;;;;;2.92;1.83;;;;;;;8.53;61.19;93874.91;6248256;22;20019;-86
2023/12/09 16:45:53;;;;;;;3.10;2.03;;;;;;;8.55;61.12;93873.75;6222569;22;20019;-85
2023/12/09 16:50:44;;;;;;;2.63;1.75;;;;;;;8.38;61.40;93888.84;6273998;22;20019;-86
2023/12/09 16:53:09;;;;;;;3.00;2.35;;;;;;;8.17;61.86;93899.34;6248275;22;20004;-86